Decoded Metar for KTWF (TWIN FALLS in ID, USA) (IATA:TWF) | Meteo·Mobile Aviation Weather
aviador You're here:

KTWF Decoded Metar

TWIN FALLS in ID, USA
Report Time2018-09-23 19:53:00
UTC Time2018-09-23 20:21:08
Flight Rules vfr VFR
Wind270° at 08 kt
W.Decomp.*RWY 25: 8.0 kt HW 0.6 kt RCW
RWY 30: 5.6 kt HW 5.8 kt LCW
W.Rank270° ranks 10
Current wind is below 270° avg. (12.5)
Visibility9999 m
Phenomena:N/A
Clouds:N/A
Expected CloudBase > 6,000 ft AGL from Temp-Dew spread
CeilingNone
Temp20°C (ISA +13)
Dew Point05°C (38% RH)
AAT16.0°C
QNH1016 hPa
Density Alt5,712 ft
Elevation4,154 ft
Report Wrong Elevation
Raw Report
KTWF 231953Z 27008KT 10SM CLR 20/05 A3000 RMK AO2 SLP115
T02000050=

Extra information for KTWF:More info

Metar Taf Metar & Taf Last 4 Metars F.Rules Stats Wind Profile Meteogram Temp Stats Airport Information Weather charts Add Link Nearby VenuesMetar ALERT Operation Metar Decoded Social comments

AIRNAV info for KTWF